sensor_id;sensor_type;location;lat;lon;timestamp;P1;durP1;ratioP1;P2;durP2;ratioP2
46022;SDS011;31756;47.936;16.224;2023-05-19T00:01:22;8.43;;;5.50;;
46022;SDS011;31756;47.936;16.224;2023-05-19T00:03:52;7.40;;;4.53;;
46022;SDS011;31756;47.936;16.224;2023-05-19T00:06:22;6.90;;;4.68;;
46022;SDS011;31756;47.936;16.224;2023-05-19T00:08:49;6.80;;;4.65;;
46022;SDS011;31756;47.936;16.224;2023-05-19T00:11:17;6.72;;;4.45;;
46022;SDS011;31756;47.936;16.224;2023-05-19T00:13:42;8.50;;;5.50;;
46022;SDS011;31756;47.936;16.224;2023-05-19T00:16:12;7.53;;;4.50;;
46022;SDS011;31756;47.936;16.224;2023-05-19T00:18:38;7.45;;;4.75;;
46022;SDS011;31756;47.936;16.224;2023-05-19T00:21:05;9.50;;;4.85;;
46022;SDS011;31756;47.936;16.224;2023-05-19T00:23:30;13.35;;;4.38;;
46022;SDS011;31756;47.936;16.224;2023-05-19T00:25:55;7.40;;;4.63;;
46022;SDS011;31756;47.936;16.224;2023-05-19T00:28:21;5.18;;;4.30;;
46022;SDS011;31756;47.936;16.224;2023-05-19T00:30:46;5.57;;;4.88;;
46022;SDS011;31756;47.936;16.224;2023-05-19T00:33:12;7.05;;;4.43;;
46022;SDS011;31756;47.936;16.224;2023-05-19T00:35:37;11.85;;;6.20;;
46022;SDS011;31756;47.936;16.224;2023-05-19T00:38:04;10.55;;;5.93;;
46022;SDS011;31756;47.936;16.224;2023-05-19T00:40:30;10.48;;;5.43;;
46022;SDS011;31756;47.936;16.224;2023-05-19T00:42:58;9.57;;;6.28;;
46022;SDS011;31756;47.936;16.224;2023-05-19T00:45:24;8.25;;;4.97;;
46022;SDS011;31756;47.936;16.224;2023-05-19T00:47:49;10.70;;;5.95;;
46022;SDS011;31756;47.936;16.224;2023-05-19T00:50:15;6.75;;;5.30;;
46022;SDS011;31756;47.936;16.224;2023-05-19T00:52:40;14.82;;;6.22;;
46022;SDS011;31756;47.936;16.224;2023-05-19T00:55:05;11.80;;;7.10;;
46022;SDS011;31756;47.936;16.224;2023-05-19T00:57:32;9.25;;;5.53;;
46022;SDS011;31756;47.936;16.224;2023-05-19T00:59:57;9.05;;;5.40;;
46022;SDS011;31756;47.936;16.224;2023-05-19T01:02:23;9.02;;;5.30;;
46022;SDS011;31756;47.936;16.224;2023-05-19T01:04:49;8.38;;;4.93;;
46022;SDS011;31756;47.936;16.224;2023-05-19T01:07:15;6.78;;;4.72;;
46022;SDS011;31756;47.936;16.224;2023-05-19T01:09:40;9.40;;;6.32;;
46022;SDS011;31756;47.936;16.224;2023-05-19T01:12:07;8.23;;;5.93;;
46022;SDS011;31756;47.936;16.224;2023-05-19T01:14:33;9.40;;;5.05;;
46022;SDS011;31756;47.936;16.224;2023-05-19T01:17:34;9.15;;;5.22;;
46022;SDS011;31756;47.936;16.224;2023-05-19T01:20:14;11.23;;;5.40;;
46022;SDS011;31756;47.936;16.224;2023-05-19T01:27:54;12.93;;;6.28;;
46022;SDS011;31756;47.936;16.224;2023-05-19T01:30:29;7.70;;;5.88;;
46022;SDS011;31756;47.936;16.224;2023-05-19T01:33:02;8.38;;;6.05;;
46022;SDS011;31756;47.936;16.224;2023-05-19T01:35:28;8.13;;;6.97;;
46022;SDS011;31756;47.936;16.224;2023-05-19T01:37:57;11.23;;;6.72;;
46022;SDS011;31756;47.936;16.224;2023-05-19T01:40:23;8.38;;;6.10;;
46022;SDS011;31756;47.936;16.224;2023-05-19T01:42:50;11.40;;;7.10;;
46022;SDS011;31756;47.936;16.224;2023-05-19T01:45:16;9.90;;;6.38;;
46022;SDS011;31756;47.936;16.224;2023-05-19T01:47:43;10.70;;;7.97;;
46022;SDS011;31756;47.936;16.224;2023-05-19T01:50:08;9.38;;;6.78;;
46022;SDS011;31756;47.936;16.224;2023-05-19T01:52:34;12.95;;;7.85;;
46022;SDS011;31756;47.936;16.224;2023-05-19T01:55:00;16.75;;;8.10;;
46022;SDS011;31756;47.936;16.224;2023-05-19T01:57:29;12.98;;;9.43;;
46022;SDS011;31756;47.936;16.224;2023-05-19T02:00:47;14.77;;;8.63;;
46022;SDS011;31756;47.936;16.224;2023-05-19T02:05:12;17.83;;;8.95;;
46022;SDS011;31756;47.936;16.224;2023-05-19T02:07:54;14.25;;;8.07;;
46022;SDS011;31756;47.936;16.224;2023-05-19T02:10:22;11.88;;;8.15;;
46022;SDS011;31756;47.936;16.224;2023-05-19T02:12:50;19.40;;;9.88;;
46022;SDS011;31756;47.936;16.224;2023-05-19T02:15:21;12.32;;;8.85;;
46022;SDS011;31756;47.936;16.224;2023-05-19T02:17:48;16.42;;;9.07;;
46022;SDS011;31756;47.936;16.224;2023-05-19T02:20:16;14.55;;;8.38;;
46022;SDS011;31756;47.936;16.224;2023-05-19T02:22:42;12.23;;;8.55;;
46022;SDS011;31756;47.936;16.224;2023-05-19T02:25:08;11.15;;;7.47;;
46022;SDS011;31756;47.936;16.224;2023-05-19T02:27:35;14.77;;;7.45;;
46022;SDS011;31756;47.936;16.224;2023-05-19T02:30:01;13.95;;;8.15;;
46022;SDS011;31756;47.936;16.224;2023-05-19T02:32:27;11.77;;;8.48;;
46022;SDS011;31756;47.936;16.224;2023-05-19T02:34:53;13.35;;;9.02;;
46022;SDS011;31756;47.936;16.224;2023-05-19T02:37:20;13.88;;;9.40;;
46022;SDS011;31756;47.936;16.224;2023-05-19T02:39:48;16.63;;;9.25;;
46022;SDS011;31756;47.936;16.224;2023-05-19T02:42:13;12.45;;;9.15;;
46022;SDS011;31756;47.936;16.224;2023-05-19T02:44:41;14.45;;;9.15;;
46022;SDS011;31756;47.936;16.224;2023-05-19T02:47:07;14.70;;;9.88;;
46022;SDS011;31756;47.936;16.224;2023-05-19T02:49:32;13.50;;;8.98;;
46022;SDS011;31756;47.936;16.224;2023-05-19T02:52:01;13.65;;;8.57;;
46022;SDS011;31756;47.936;16.224;2023-05-19T02:54:28;16.20;;;8.95;;
46022;SDS011;31756;47.936;16.224;2023-05-19T02:56:54;12.23;;;8.77;;
46022;SDS011;31756;47.936;16.224;2023-05-19T02:59:19;20.52;;;10.88;;
46022;SDS011;31756;47.936;16.224;2023-05-19T03:01:46;14.32;;;9.95;;
46022;SDS011;31756;47.936;16.224;2023-05-19T03:04:11;14.85;;;9.60;;
46022;SDS011;31756;47.936;16.224;2023-05-19T03:06:38;11.45;;;8.80;;
46022;SDS011;31756;47.936;16.224;2023-05-19T03:09:03;20.63;;;13.10;;
46022;SDS011;31756;47.936;16.224;2023-05-19T03:11:30;21.60;;;11.90;;
46022;SDS011;31756;47.936;16.224;2023-05-19T03:13:55;17.08;;;10.73;;
46022;SDS011;31756;47.936;16.224;2023-05-19T03:16:21;14.73;;;10.48;;
46022;SDS011;31756;47.936;16.224;2023-05-19T03:18:46;16.27;;;9.48;;
46022;SDS011;31756;47.936;16.224;2023-05-19T03:21:12;18.17;;;10.32;;
46022;SDS011;31756;47.936;16.224;2023-05-19T03:23:37;12.95;;;10.40;;
46022;SDS011;31756;47.936;16.224;2023-05-19T03:26:03;13.77;;;10.05;;
46022;SDS011;31756;47.936;16.224;2023-05-19T03:28:28;14.57;;;12.13;;
46022;SDS011;31756;47.936;16.224;2023-05-19T03:30:55;17.45;;;9.73;;
46022;SDS011;31756;47.936;16.224;2023-05-19T03:33:25;12.07;;;8.93;;
46022;SDS011;31756;47.936;16.224;2023-05-19T03:35:52;19.13;;;9.60;;
46022;SDS011;31756;47.936;16.224;2023-05-19T03:38:18;15.65;;;10.30;;
46022;SDS011;31756;47.936;16.224;2023-05-19T03:40:55;15.50;;;10.75;;
46022;SDS011;31756;47.936;16.224;2023-05-19T03:43:20;15.80;;;10.13;;
46022;SDS011;31756;47.936;16.224;2023-05-19T03:45:52;17.85;;;10.80;;
46022;SDS011;31756;47.936;16.224;2023-05-19T03:48:36;18.38;;;12.75;;
46022;SDS011;31756;47.936;16.224;2023-05-19T03:51:19;22.38;;;12.93;;
46022;SDS011;31756;47.936;16.224;2023-05-19T03:53:46;19.80;;;11.85;;
46022;SDS011;31756;47.936;16.224;2023-05-19T03:56:12;22.20;;;12.88;;
46022;SDS011;31756;47.936;16.224;2023-05-19T03:58:39;21.05;;;12.57;;
46022;SDS011;31756;47.936;16.224;2023-05-19T04:01:09;20.55;;;12.70;;
46022;SDS011;31756;47.936;16.224;2023-05-19T04:03:34;25.23;;;12.75;;
46022;SDS011;31756;47.936;16.224;2023-05-19T04:06:00;17.50;;;12.63;;
46022;SDS011;31756;47.936;16.224;2023-05-19T04:08:26;16.35;;;11.50;;
46022;SDS011;31756;47.936;16.224;2023-05-19T04:10:51;17.65;;;11.27;;
46022;SDS011;31756;47.936;16.224;2023-05-19T04:13:17;16.42;;;10.88;;
46022;SDS011;31756;47.936;16.224;2023-05-19T04:15:42;17.35;;;11.88;;
46022;SDS011;31756;47.936;16.224;2023-05-19T04:18:07;18.25;;;10.20;;
46022;SDS011;31756;47.936;16.224;2023-05-19T04:20:33;18.48;;;11.85;;
46022;SDS011;31756;47.936;16.224;2023-05-19T04:22:58;19.48;;;10.85;;
46022;SDS011;31756;47.936;16.224;2023-05-19T04:25:24;17.00;;;10.98;;
46022;SDS011;31756;47.936;16.224;2023-05-19T04:27:49;22.42;;;10.93;;
46022;SDS011;31756;47.936;16.224;2023-05-19T04:30:14;16.00;;;10.07;;
46022;SDS011;31756;47.936;16.224;2023-05-19T04:32:46;17.17;;;11.48;;
46022;SDS011;31756;47.936;16.224;2023-05-19T04:35:13;16.80;;;10.68;;
46022;SDS011;31756;47.936;16.224;2023-05-19T04:37:42;15.50;;;11.13;;
46022;SDS011;31756;47.936;16.224;2023-05-19T04:40:11;17.85;;;11.27;;
46022;SDS011;31756;47.936;16.224;2023-05-19T04:42:37;15.52;;;11.13;;
46022;SDS011;31756;47.936;16.224;2023-05-19T04:45:06;15.40;;;10.98;;
46022;SDS011;31756;47.936;16.224;2023-05-19T04:47:35;20.10;;;11.35;;
46022;SDS011;31756;47.936;16.224;2023-05-19T04:50:02;19.35;;;11.75;;
46022;SDS011;31756;47.936;16.224;2023-05-19T04:52:28;17.52;;;11.40;;
46022;SDS011;31756;47.936;16.224;2023-05-19T04:54:54;15.77;;;11.05;;
46022;SDS011;31756;47.936;16.224;2023-05-19T04:57:19;18.58;;;11.60;;
46022;SDS011;31756;47.936;16.224;2023-05-19T04:59:45;17.40;;;10.60;;
46022;SDS011;31756;47.936;16.224;2023-05-19T05:02:10;16.95;;;11.38;;
46022;SDS011;31756;47.936;16.224;2023-05-19T05:04:36;17.08;;;12.52;;
46022;SDS011;31756;47.936;16.224;2023-05-19T05:07:01;17.85;;;11.02;;
46022;SDS011;31756;47.936;16.224;2023-05-19T05:09:27;16.55;;;11.02;;
46022;SDS011;31756;47.936;16.224;2023-05-19T05:11:54;17.38;;;11.52;;
46022;SDS011;31756;47.936;16.224;2023-05-19T05:14:20;15.10;;;10.85;;
46022;SDS011;31756;47.936;16.224;2023-05-19T05:16:45;15.48;;;11.20;;
46022;SDS011;31756;47.936;16.224;2023-05-19T05:19:15;17.33;;;11.98;;
46022;SDS011;31756;47.936;16.224;2023-05-19T05:21:41;13.75;;;10.55;;
46022;SDS011;31756;47.936;16.224;2023-05-19T05:24:07;19.05;;;11.50;;
46022;SDS011;31756;47.936;16.224;2023-05-19T05:26:34;11.50;;;8.93;;
46022;SDS011;31756;47.936;16.224;2023-05-19T05:29:00;16.33;;;10.60;;
46022;SDS011;31756;47.936;16.224;2023-05-19T05:31:25;14.77;;;9.82;;
46022;SDS011;31756;47.936;16.224;2023-05-19T05:33:51;14.38;;;10.50;;
46022;SDS011;31756;47.936;16.224;2023-05-19T05:36:20;17.73;;;11.23;;
46022;SDS011;31756;47.936;16.224;2023-05-19T05:38:46;15.52;;;10.35;;
46022;SDS011;31756;47.936;16.224;2023-05-19T05:41:12;12.55;;;10.95;;
46022;SDS011;31756;47.936;16.224;2023-05-19T05:43:37;13.15;;;9.73;;
46022;SDS011;31756;47.936;16.224;2023-05-19T05:46:03;15.25;;;10.30;;
46022;SDS011;31756;47.936;16.224;2023-05-19T05:48:29;12.02;;;10.05;;
46022;SDS011;31756;47.936;16.224;2023-05-19T05:50:55;15.10;;;9.88;;
46022;SDS011;31756;47.936;16.224;2023-05-19T05:53:24;16.58;;;11.15;;
46022;SDS011;31756;47.936;16.224;2023-05-19T05:55:52;15.75;;;10.13;;
46022;SDS011;31756;47.936;16.224;2023-05-19T05:58:19;12.82;;;9.80;;
46022;SDS011;31756;47.936;16.224;2023-05-19T06:00:45;14.45;;;10.13;;
46022;SDS011;31756;47.936;16.224;2023-05-19T06:03:12;18.75;;;10.23;;
46022;SDS011;31756;47.936;16.224;2023-05-19T06:05:39;16.20;;;10.77;;
46022;SDS011;31756;47.936;16.224;2023-05-19T06:08:04;16.80;;;11.07;;
46022;SDS011;31756;47.936;16.224;2023-05-19T06:10:30;13.23;;;10.75;;
46022;SDS011;31756;47.936;16.224;2023-05-19T06:12:57;14.10;;;10.15;;
46022;SDS011;31756;47.936;16.224;2023-05-19T06:15:23;15.82;;;10.52;;
46022;SDS011;31756;47.936;16.224;2023-05-19T06:18:02;15.15;;;9.63;;
46022;SDS011;31756;47.936;16.224;2023-05-19T06:20:28;15.95;;;10.48;;
46022;SDS011;31756;47.936;16.224;2023-05-19T06:22:54;13.95;;;11.40;;
46022;SDS011;31756;47.936;16.224;2023-05-19T06:25:21;14.60;;;11.25;;
46022;SDS011;31756;47.936;16.224;2023-05-19T06:27:46;15.20;;;11.80;;
46022;SDS011;31756;47.936;16.224;2023-05-19T06:30:13;13.48;;;9.85;;
46022;SDS011;31756;47.936;16.224;2023-05-19T06:32:55;14.70;;;10.45;;
46022;SDS011;31756;47.936;16.224;2023-05-19T06:35:20;12.95;;;9.38;;
46022;SDS011;31756;47.936;16.224;2023-05-19T06:37:46;15.25;;;10.25;;
46022;SDS011;31756;47.936;16.224;2023-05-19T06:40:11;16.95;;;11.07;;
46022;SDS011;31756;47.936;16.224;2023-05-19T06:42:38;14.23;;;9.73;;
46022;SDS011;31756;47.936;16.224;2023-05-19T06:45:12;11.50;;;9.30;;
46022;SDS011;31756;47.936;16.224;2023-05-19T06:47:38;13.57;;;10.70;;
46022;SDS011;31756;47.936;16.224;2023-05-19T06:50:09;14.38;;;10.63;;
46022;SDS011;31756;47.936;16.224;2023-05-19T06:52:37;12.75;;;9.18;;
46022;SDS011;31756;47.936;16.224;2023-05-19T06:55:03;13.45;;;9.73;;
46022;SDS011;31756;47.936;16.224;2023-05-19T06:57:29;12.77;;;9.80;;
46022;SDS011;31756;47.936;16.224;2023-05-19T06:59:55;10.00;;;8.70;;
46022;SDS011;31756;47.936;16.224;2023-05-19T07:02:21;13.57;;;9.13;;
46022;SDS011;31756;47.936;16.224;2023-05-19T07:04:47;12.52;;;8.52;;
46022;SDS011;31756;47.936;16.224;2023-05-19T07:07:14;14.18;;;8.43;;
46022;SDS011;31756;47.936;16.224;2023-05-19T07:09:40;12.75;;;8.65;;
46022;SDS011;31756;47.936;16.224;2023-05-19T07:12:06;10.43;;;7.32;;
46022;SDS011;31756;47.936;16.224;2023-05-19T07:14:31;10.50;;;8.02;;
46022;SDS011;31756;47.936;16.224;2023-05-19T07:16:57;12.82;;;9.75;;
46022;SDS011;31756;47.936;16.224;2023-05-19T07:19:23;13.20;;;9.50;;
46022;SDS011;31756;47.936;16.224;2023-05-19T07:21:49;14.25;;;8.45;;
46022;SDS011;31756;47.936;16.224;2023-05-19T07:24:14;12.55;;;9.40;;
46022;SDS011;31756;47.936;16.224;2023-05-19T07:26:40;9.98;;;8.65;;
46022;SDS011;31756;47.936;16.224;2023-05-19T07:29:06;16.02;;;9.98;;
46022;SDS011;31756;47.936;16.224;2023-05-19T07:31:32;12.60;;;9.02;;
46022;SDS011;31756;47.936;16.224;2023-05-19T07:33:57;12.00;;;9.38;;
46022;SDS011;31756;47.936;16.224;2023-05-19T07:36:23;12.20;;;9.40;;
46022;SDS011;31756;47.936;16.224;2023-05-19T07:38:48;13.95;;;10.10;;
46022;SDS011;31756;47.936;16.224;2023-05-19T07:41:13;10.55;;;8.90;;
46022;SDS011;31756;47.936;16.224;2023-05-19T07:43:39;13.30;;;9.93;;
46022;SDS011;31756;47.936;16.224;2023-05-19T07:46:05;9.95;;;8.02;;
46022;SDS011;31756;47.936;16.224;2023-05-19T07:48:30;15.40;;;9.68;;
46022;SDS011;31756;47.936;16.224;2023-05-19T07:50:55;10.50;;;9.40;;
46022;SDS011;31756;47.936;16.224;2023-05-19T07:53:21;15.20;;;9.82;;
46022;SDS011;31756;47.936;16.224;2023-05-19T07:55:47;9.27;;;8.15;;
46022;SDS011;31756;47.936;16.224;2023-05-19T07:58:12;13.10;;;9.02;;
46022;SDS011;31756;47.936;16.224;2023-05-19T08:00:38;11.50;;;9.00;;
46022;SDS011;31756;47.936;16.224;2023-05-19T08:03:03;9.65;;;8.20;;
46022;SDS011;31756;47.936;16.224;2023-05-19T08:05:28;11.10;;;8.93;;
46022;SDS011;31756;47.936;16.224;2023-05-19T08:07:54;11.50;;;8.63;;
46022;SDS011;31756;47.936;16.224;2023-05-19T08:10:20;13.35;;;8.90;;
46022;SDS011;31756;47.936;16.224;2023-05-19T08:12:46;11.95;;;9.40;;
46022;SDS011;31756;47.936;16.224;2023-05-19T08:15:11;12.95;;;8.15;;
46022;SDS011;31756;47.936;16.224;2023-05-19T08:17:37;12.13;;;8.57;;
46022;SDS011;31756;47.936;16.224;2023-05-19T08:20:03;12.85;;;8.05;;
46022;SDS011;31756;47.936;16.224;2023-05-19T08:22:30;12.68;;;8.93;;
46022;SDS011;31756;47.936;16.224;2023-05-19T08:24:55;10.13;;;7.95;;
46022;SDS011;31756;47.936;16.224;2023-05-19T08:27:21;10.32;;;8.88;;
46022;SDS011;31756;47.936;16.224;2023-05-19T08:29:46;10.90;;;7.82;;
46022;SDS011;31756;47.936;16.224;2023-05-19T08:32:11;9.52;;;7.50;;
46022;SDS011;31756;47.936;16.224;2023-05-19T08:34:37;10.57;;;7.70;;
46022;SDS011;31756;47.936;16.224;2023-05-19T08:37:02;9.73;;;6.63;;
46022;SDS011;31756;47.936;16.224;2023-05-19T08:39:28;8.63;;;7.38;;
46022;SDS011;31756;47.936;16.224;2023-05-19T08:41:53;7.55;;;6.40;;
46022;SDS011;31756;47.936;16.224;2023-05-19T08:44:19;8.52;;;6.03;;
46022;SDS011;31756;47.936;16.224;2023-05-19T08:46:45;7.55;;;6.80;;
46022;SDS011;31756;47.936;16.224;2023-05-19T08:49:12;9.20;;;6.30;;
46022;SDS011;31756;47.936;16.224;2023-05-19T08:51:38;7.63;;;6.38;;
46022;SDS011;31756;47.936;16.224;2023-05-19T08:54:15;8.15;;;6.13;;
46022;SDS011;31756;47.936;16.224;2023-05-19T08:56:42;10.95;;;5.95;;
46022;SDS011;31756;47.936;16.224;2023-05-19T08:59:09;7.65;;;5.63;;
46022;SDS011;31756;47.936;16.224;2023-05-19T09:01:34;8.35;;;6.28;;
46022;SDS011;31756;47.936;16.224;2023-05-19T09:04:01;8.00;;;6.18;;
46022;SDS011;31756;47.936;16.224;2023-05-19T09:06:27;6.35;;;5.32;;
46022;SDS011;31756;47.936;16.224;2023-05-19T09:08:52;10.27;;;4.95;;
46022;SDS011;31756;47.936;16.224;2023-05-19T09:11:18;10.85;;;6.47;;
46022;SDS011;31756;47.936;16.224;2023-05-19T09:13:43;5.10;;;4.43;;
46022;SDS011;31756;47.936;16.224;2023-05-19T09:16:09;15.77;;;8.77;;
46022;SDS011;31756;47.936;16.224;2023-05-19T09:18:37;9.80;;;6.57;;
46022;SDS011;31756;47.936;16.224;2023-05-19T09:21:02;7.53;;;5.22;;
46022;SDS011;31756;47.936;16.224;2023-05-19T09:23:29;6.47;;;5.50;;
46022;SDS011;31756;47.936;16.224;2023-05-19T09:25:55;6.70;;;6.05;;
46022;SDS011;31756;47.936;16.224;2023-05-19T09:28:30;6.60;;;5.03;;
46022;SDS011;31756;47.936;16.224;2023-05-19T09:30:57;10.48;;;5.65;;
46022;SDS011;31756;47.936;16.224;2023-05-19T09:33:23;7.57;;;5.18;;
46022;SDS011;31756;47.936;16.224;2023-05-19T09:35:48;5.88;;;5.28;;
46022;SDS011;31756;47.936;16.224;2023-05-19T09:38:17;6.55;;;5.70;;
46022;SDS011;31756;47.936;16.224;2023-05-19T09:40:43;7.63;;;5.15;;
46022;SDS011;31756;47.936;16.224;2023-05-19T09:43:08;7.80;;;5.05;;
46022;SDS011;31756;47.936;16.224;2023-05-19T09:45:34;7.68;;;5.25;;
46022;SDS011;31756;47.936;16.224;2023-05-19T09:48:02;7.10;;;5.82;;
46022;SDS011;31756;47.936;16.224;2023-05-19T09:50:28;6.95;;;4.95;;
46022;SDS011;31756;47.936;16.224;2023-05-19T09:52:54;6.55;;;5.05;;
46022;SDS011;31756;47.936;16.224;2023-05-19T09:55:21;7.18;;;5.25;;
46022;SDS011;31756;47.936;16.224;2023-05-19T09:57:49;6.75;;;5.68;;
46022;SDS011;31756;47.936;16.224;2023-05-19T10:00:16;6.30;;;5.00;;
46022;SDS011;31756;47.936;16.224;2023-05-19T10:02:43;5.82;;;5.20;;
46022;SDS011;31756;47.936;16.224;2023-05-19T10:05:15;5.97;;;4.65;;
46022;SDS011;31756;47.936;16.224;2023-05-19T10:07:42;5.45;;;4.95;;
46022;SDS011;31756;47.936;16.224;2023-05-19T10:10:10;6.10;;;4.55;;
46022;SDS011;31756;47.936;16.224;2023-05-19T10:12:37;5.22;;;4.72;;
46022;SDS011;31756;47.936;16.224;2023-05-19T10:15:03;6.18;;;4.93;;
46022;SDS011;31756;47.936;16.224;2023-05-19T10:17:29;6.72;;;5.50;;
46022;SDS011;31756;47.936;16.224;2023-05-19T10:19:55;6.13;;;5.10;;
46022;SDS011;31756;47.936;16.224;2023-05-19T10:22:21;6.03;;;5.00;;
46022;SDS011;31756;47.936;16.224;2023-05-19T10:24:47;6.22;;;5.63;;
46022;SDS011;31756;47.936;16.224;2023-05-19T10:27:12;4.70;;;4.30;;
46022;SDS011;31756;47.936;16.224;2023-05-19T10:29:39;6.30;;;5.13;;
46022;SDS011;31756;47.936;16.224;2023-05-19T10:32:09;8.77;;;5.82;;
46022;SDS011;31756;47.936;16.224;2023-05-19T10:37:19;12.57;;;5.88;;
46022;SDS011;31756;47.936;16.224;2023-05-19T10:39:47;5.45;;;4.82;;
46022;SDS011;31756;47.936;16.224;2023-05-19T10:42:15;5.35;;;4.85;;
46022;SDS011;31756;47.936;16.224;2023-05-19T10:47:28;6.70;;;5.23;;
46022;SDS011;31756;47.936;16.224;2023-05-19T10:49:54;6.53;;;5.88;;
46022;SDS011;31756;47.936;16.224;2023-05-19T10:52:23;4.97;;;4.55;;
46022;SDS011;31756;47.936;16.224;2023-05-19T10:54:54;5.07;;;4.60;;
46022;SDS011;31756;47.936;16.224;2023-05-19T10:57:24;5.00;;;4.45;;
46022;SDS011;31756;47.936;16.224;2023-05-19T10:59:50;5.53;;;5.00;;
46022;SDS011;31756;47.936;16.224;2023-05-19T11:05:33;9.38;;;7.15;;
46022;SDS011;31756;47.936;16.224;2023-05-19T11:07:55;12.80;;;9.48;;
46022;SDS011;31756;47.936;16.224;2023-05-19T11:10:24;7.07;;;5.05;;
46022;SDS011;31756;47.936;16.224;2023-05-19T11:12:49;8.07;;;6.88;;
46022;SDS011;31756;47.936;16.224;2023-05-19T11:15:16;8.25;;;5.13;;
46022;SDS011;31756;47.936;16.224;2023-05-19T11:17:46;6.13;;;5.47;;
46022;SDS011;31756;47.936;16.224;2023-05-19T11:20:23;7.78;;;5.25;;
46022;SDS011;31756;47.936;16.224;2023-05-19T11:23:04;4.97;;;4.57;;
46022;SDS011;31756;47.936;16.224;2023-05-19T11:25:39;6.05;;;4.45;;
46022;SDS011;31756;47.936;16.224;2023-05-19T11:28:05;5.03;;;3.75;;
46022;SDS011;31756;47.936;16.224;2023-05-19T11:30:30;20.50;;;15.60;;
46022;SDS011;31756;47.936;16.224;2023-05-19T11:32:56;27.55;;;18.20;;
46022;SDS011;31756;47.936;16.224;2023-05-19T11:35:22;6.15;;;5.55;;
46022;SDS011;31756;47.936;16.224;2023-05-19T11:37:48;4.72;;;4.32;;
46022;SDS011;31756;47.936;16.224;2023-05-19T11:40:15;6.32;;;5.18;;
46022;SDS011;31756;47.936;16.224;2023-05-19T11:42:41;5.15;;;4.45;;
46022;SDS011;31756;47.936;16.224;2023-05-19T11:45:07;5.82;;;5.32;;
46022;SDS011;31756;47.936;16.224;2023-05-19T11:47:32;7.20;;;5.38;;
46022;SDS011;31756;47.936;16.224;2023-05-19T11:49:57;5.78;;;4.85;;
46022;SDS011;31756;47.936;16.224;2023-05-19T11:52:24;6.88;;;6.22;;
46022;SDS011;31756;47.936;16.224;2023-05-19T11:54:50;7.00;;;5.22;;
46022;SDS011;31756;47.936;16.224;2023-05-19T11:57:15;6.32;;;5.32;;
46022;SDS011;31756;47.936;16.224;2023-05-19T11:59:40;6.70;;;5.25;;
46022;SDS011;31756;47.936;16.224;2023-05-19T12:04:41;6.22;;;5.43;;
46022;SDS011;31756;47.936;16.224;2023-05-19T12:07:07;6.85;;;4.75;;
46022;SDS011;31756;47.936;16.224;2023-05-19T12:09:32;5.35;;;4.85;;
46022;SDS011;31756;47.936;16.224;2023-05-19T12:11:57;8.07;;;4.97;;
46022;SDS011;31756;47.936;16.224;2023-05-19T12:14:24;6.03;;;5.25;;
46022;SDS011;31756;47.936;16.224;2023-05-19T12:16:50;7.13;;;4.85;;
46022;SDS011;31756;47.936;16.224;2023-05-19T12:19:15;5.90;;;4.43;;
46022;SDS011;31756;47.936;16.224;2023-05-19T12:21:41;6.03;;;4.55;;
46022;SDS011;31756;47.936;16.224;2023-05-19T12:24:07;5.13;;;4.63;;
46022;SDS011;31756;47.936;16.224;2023-05-19T12:26:33;6.03;;;4.70;;
46022;SDS011;31756;47.936;16.224;2023-05-19T12:28:59;5.88;;;5.15;;
46022;SDS011;31756;47.936;16.224;2023-05-19T12:31:24;4.35;;;3.95;;
46022;SDS011;31756;47.936;16.224;2023-05-19T12:33:49;6.20;;;5.13;;
46022;SDS011;31756;47.936;16.224;2023-05-19T12:36:16;5.35;;;4.85;;
46022;SDS011;31756;47.936;16.224;2023-05-19T12:38:42;5.13;;;4.63;;
46022;SDS011;31756;47.936;16.224;2023-05-19T12:41:09;4.10;;;3.70;;
46022;SDS011;31756;47.936;16.224;2023-05-19T12:43:34;7.43;;;3.80;;
46022;SDS011;31756;47.936;16.224;2023-05-19T12:46:10;4.15;;;3.85;;
46022;SDS011;31756;47.936;16.224;2023-05-19T12:48:39;4.78;;;4.10;;
46022;SDS011;31756;47.936;16.224;2023-05-19T12:51:05;5.63;;;4.10;;
46022;SDS011;31756;47.936;16.224;2023-05-19T12:53:31;6.07;;;4.72;;
46022;SDS011;31756;47.936;16.224;2023-05-19T12:55:57;4.35;;;3.97;;
46022;SDS011;31756;47.936;16.224;2023-05-19T12:58:22;3.83;;;3.53;;
46022;SDS011;31756;47.936;16.224;2023-05-19T13:00:48;5.03;;;4.13;;
46022;SDS011;31756;47.936;16.224;2023-05-19T13:03:15;4.60;;;3.83;;
46022;SDS011;31756;47.936;16.224;2023-05-19T13:05:42;4.20;;;3.70;;
46022;SDS011;31756;47.936;16.224;2023-05-19T13:08:12;4.53;;;4.13;;
46022;SDS011;31756;47.936;16.224;2023-05-19T13:10:38;3.92;;;3.60;;
46022;SDS011;31756;47.936;16.224;2023-05-19T13:13:04;4.03;;;3.72;;
46022;SDS011;31756;47.936;16.224;2023-05-19T13:15:30;4.88;;;3.88;;
46022;SDS011;31756;47.936;16.224;2023-05-19T13:17:58;3.70;;;3.42;;
46022;SDS011;31756;47.936;16.224;2023-05-19T13:20:24;4.00;;;3.60;;
46022;SDS011;31756;47.936;16.224;2023-05-19T13:22:50;3.97;;;3.60;;
46022;SDS011;31756;47.936;16.224;2023-05-19T13:25:15;4.20;;;3.80;;
46022;SDS011;31756;47.936;16.224;2023-05-19T13:27:41;3.75;;;3.45;;
46022;SDS011;31756;47.936;16.224;2023-05-19T13:30:06;4.47;;;4.03;;
46022;SDS011;31756;47.936;16.224;2023-05-19T13:32:32;3.95;;;3.65;;
46022;SDS011;31756;47.936;16.224;2023-05-19T13:34:58;4.70;;;4.30;;
46022;SDS011;31756;47.936;16.224;2023-05-19T13:37:24;4.10;;;3.80;;
46022;SDS011;31756;47.936;16.224;2023-05-19T13:39:49;4.07;;;3.78;;
46022;SDS011;31756;47.936;16.224;2023-05-19T13:42:15;4.28;;;3.83;;
46022;SDS011;31756;47.936;16.224;2023-05-19T13:44:41;4.65;;;4.22;;
46022;SDS011;31756;47.936;16.224;2023-05-19T13:47:07;6.35;;;4.60;;
46022;SDS011;31756;47.936;16.224;2023-05-19T13:49:32;6.90;;;3.97;;
46022;SDS011;31756;47.936;16.224;2023-05-19T13:51:58;5.63;;;4.80;;
46022;SDS011;31756;47.936;16.224;2023-05-19T13:54:24;4.97;;;4.45;;
46022;SDS011;31756;47.936;16.224;2023-05-19T13:56:49;4.85;;;4.38;;
46022;SDS011;31756;47.936;16.224;2023-05-19T13:59:15;4.63;;;4.32;;
46022;SDS011;31756;47.936;16.224;2023-05-19T14:01:41;4.00;;;3.70;;
46022;SDS011;31756;47.936;16.224;2023-05-19T14:04:07;4.65;;;4.35;;
46022;SDS011;31756;47.936;16.224;2023-05-19T14:06:33;4.70;;;4.30;;
46022;SDS011;31756;47.936;16.224;2023-05-19T14:08:58;3.63;;;3.33;;
46022;SDS011;31756;47.936;16.224;2023-05-19T14:11:24;5.05;;;4.50;;
46022;SDS011;31756;47.936;16.224;2023-05-19T14:13:50;3.80;;;3.60;;
46022;SDS011;31756;47.936;16.224;2023-05-19T14:16:16;4.40;;;4.10;;
46022;SDS011;31756;47.936;16.224;2023-05-19T14:18:41;4.07;;;3.70;;
46022;SDS011;31756;47.936;16.224;2023-05-19T14:21:07;4.35;;;4.05;;
46022;SDS011;31756;47.936;16.224;2023-05-19T14:23:32;4.03;;;3.72;;
46022;SDS011;31756;47.936;16.224;2023-05-19T14:25:58;5.30;;;4.00;;
46022;SDS011;31756;47.936;16.224;2023-05-19T14:28:23;4.13;;;3.83;;
46022;SDS011;31756;47.936;16.224;2023-05-19T14:30:51;4.20;;;3.90;;
46022;SDS011;31756;47.936;16.224;2023-05-19T14:33:17;4.10;;;3.80;;
46022;SDS011;31756;47.936;16.224;2023-05-19T14:35:43;4.80;;;4.38;;
46022;SDS011;31756;47.936;16.224;2023-05-19T14:38:09;3.83;;;3.53;;
46022;SDS011;31756;47.936;16.224;2023-05-19T14:40:37;4.50;;;4.18;;
46022;SDS011;31756;47.936;16.224;2023-05-19T14:43:08;4.18;;;3.88;;